sensor_id;sensor_type;location;lat;lon;timestamp;pressure;altitude;pressure_sealevel;temperature;humidity
45255;BME280;30989;52.078;21.014;2024-02-28T00:00:04;166318.06;;;9.78;100.00
45255;BME280;30989;52.078;21.014;2024-02-28T00:02:30;166319.41;;;9.78;100.00
45255;BME280;30989;52.078;21.014;2024-02-28T00:04:56;166315.41;;;9.77;100.00
45255;BME280;30989;52.078;21.014;2024-02-28T00:07:24;166316.72;;;9.77;100.00
45255;BME280;30989;52.078;21.014;2024-02-28T00:09:49;166303.34;;;9.72;100.00
45255;BME280;30989;52.078;21.014;2024-02-28T00:12:15;166284.59;;;9.65;100.00
45255;BME280;30989;52.078;21.014;2024-02-28T00:14:40;166310.03;;;9.75;100.00
45255;BME280;30989;52.078;21.014;2024-02-28T00:17:06;166303.34;;;9.72;100.00
45255;BME280;30989;52.078;21.014;2024-02-28T00:19:31;166279.25;;;9.63;100.00
45255;BME280;30989;52.078;21.014;2024-02-28T00:21:57;166280.59;;;9.63;100.00
45255;BME280;30989;52.078;21.014;2024-02-28T00:24:25;166275.25;;;9.61;100.00
45255;BME280;30989;52.078;21.014;2024-02-28T00:26:50;166276.56;;;9.62;100.00
45255;BME280;30989;52.078;21.014;2024-02-28T00:29:16;166272.56;;;9.60;100.00
45255;BME280;30989;52.078;21.014;2024-02-28T00:31:41;166271.22;;;9.60;100.00
45255;BME280;30989;52.078;21.014;2024-02-28T00:34:07;166267.22;;;9.58;100.00
45255;BME280;30989;52.078;21.014;2024-02-28T00:36:34;166253.81;;;9.53;100.00
45255;BME280;30989;52.078;21.014;2024-02-28T00:38:59;166269.88;;;9.59;100.00
45255;BME280;30989;52.078;21.014;2024-02-28T00:41:25;166260.50;;;9.56;100.00
45255;BME280;30989;52.078;21.014;2024-02-28T00:43:50;166272.56;;;9.60;100.00
45255;BME280;30989;52.078;21.014;2024-02-28T00:46:16;166265.88;;;9.58;100.00
45255;BME280;30989;52.078;21.014;2024-02-28T00:48:41;166255.16;;;9.54;100.00
45255;BME280;30989;52.078;21.014;2024-02-28T00:51:07;166257.84;;;9.55;100.00
45255;BME280;30989;52.078;21.014;2024-02-28T00:53:33;166247.13;;;9.51;100.00
45255;BME280;30989;52.078;21.014;2024-02-28T00:55:59;166252.47;;;9.53;100.00
45255;BME280;30989;52.078;21.014;2024-02-28T00:58:24;166257.84;;;9.55;100.00
45255;BME280;30989;52.078;21.014;2024-02-28T01:00:53;166244.44;;;9.50;100.00
45255;BME280;30989;52.078;21.014;2024-02-28T01:03:18;166263.19;;;9.57;100.00
45255;BME280;30989;52.078;21.014;2024-02-28T01:05:44;166265.88;;;9.58;100.00
45255;BME280;30989;52.078;21.014;2024-02-28T01:08:09;166267.22;;;9.58;100.00
45255;BME280;30989;52.078;21.014;2024-02-28T01:10:35;166267.22;;;9.58;100.00
45255;BME280;30989;52.078;21.014;2024-02-28T01:13:02;166264.53;;;9.57;100.00
45255;BME280;30989;52.078;21.014;2024-02-28T01:15:27;166264.53;;;9.57;100.00
45255;BME280;30989;52.078;21.014;2024-02-28T01:17:53;166257.84;;;9.55;100.00
45255;BME280;30989;52.078;21.014;2024-02-28T01:20:18;166249.81;;;9.52;100.00
45255;BME280;30989;52.078;21.014;2024-02-28T01:22:44;166241.78;;;9.49;100.00
45255;BME280;30989;52.078;21.014;2024-02-28T01:25:09;166225.72;;;9.43;100.00
45255;BME280;30989;52.078;21.014;2024-02-28T01:27:35;166220.38;;;9.41;100.00
45255;BME280;30989;52.078;21.014;2024-02-28T01:30:01;166206.97;;;9.35;100.00
45255;BME280;30989;52.078;21.014;2024-02-28T01:32:28;166198.94;;;9.32;100.00
45255;BME280;30989;52.078;21.014;2024-02-28T01:34:54;166185.56;;;9.27;100.00
45255;BME280;30989;52.078;21.014;2024-02-28T01:37:20;166170.84;;;9.22;100.00
45255;BME280;30989;52.078;21.014;2024-02-28T01:39:45;166158.81;;;9.17;100.00
45255;BME280;30989;52.078;21.014;2024-02-28T01:42:11;166149.44;;;9.14;100.00
45255;BME280;30989;52.078;21.014;2024-02-28T01:44:43;166140.06;;;9.10;100.00
45255;BME280;30989;52.078;21.014;2024-02-28T01:47:10;166132.03;;;9.07;100.00
45255;BME280;30989;52.078;21.014;2024-02-28T01:49:35;166116.00;;;9.01;100.00
45255;BME280;30989;52.078;21.014;2024-02-28T01:52:01;166103.94;;;8.96;100.00
45255;BME280;30989;52.078;21.014;2024-02-28T01:54:27;166087.88;;;8.90;100.00
45255;BME280;30989;52.078;21.014;2024-02-28T01:56:55;166078.53;;;8.87;100.00
45255;BME280;30989;52.078;21.014;2024-02-28T01:59:23;166074.50;;;8.85;100.00
45255;BME280;30989;52.078;21.014;2024-02-28T02:01:50;166066.50;;;8.82;100.00
45255;BME280;30989;52.078;21.014;2024-02-28T02:04:16;166059.78;;;8.80;100.00
45255;BME280;30989;52.078;21.014;2024-02-28T02:06:43;166046.41;;;8.75;100.00
45255;BME280;30989;52.078;21.014;2024-02-28T02:09:10;166053.09;;;8.77;100.00
45255;BME280;30989;52.078;21.014;2024-02-28T02:11:35;166063.81;;;8.81;100.00
45255;BME280;30989;52.078;21.014;2024-02-28T02:14:01;166075.84;;;8.86;100.00
45255;BME280;30989;52.078;21.014;2024-02-28T02:16:26;166091.91;;;8.92;100.00
45255;BME280;30989;52.078;21.014;2024-02-28T02:18:52;166101.28;;;8.95;100.00
45255;BME280;30989;52.078;21.014;2024-02-28T02:21:19;166134.72;;;9.08;100.00
45255;BME280;30989;52.078;21.014;2024-02-28T02:23:46;166137.41;;;9.09;100.00
45255;BME280;30989;52.078;21.014;2024-02-28T02:26:12;166172.19;;;9.22;100.00
45255;BME280;30989;52.078;21.014;2024-02-28T02:28:37;166186.91;;;9.28;100.00
45255;BME280;30989;52.078;21.014;2024-02-28T02:31:03;166201.63;;;9.33;100.00
45255;BME280;30989;52.078;21.014;2024-02-28T02:33:28;166215.00;;;9.38;100.00
45255;BME280;30989;52.078;21.014;2024-02-28T02:35:54;166228.38;;;9.44;100.00
45255;BME280;30989;52.078;21.014;2024-02-28T02:38:19;166236.41;;;9.47;100.00
45255;BME280;30989;52.078;21.014;2024-02-28T02:40:49;166241.78;;;9.49;100.00
45255;BME280;30989;52.078;21.014;2024-02-28T02:43:14;166231.06;;;9.45;100.00
45255;BME280;30989;52.078;21.014;2024-02-28T02:45:40;166215.00;;;9.38;100.00
45255;BME280;30989;52.078;21.014;2024-02-28T02:48:06;166185.56;;;9.27;100.00
45255;BME280;30989;52.078;21.014;2024-02-28T02:50:31;166138.72;;;9.10;100.00
45255;BME280;30989;52.078;21.014;2024-02-28T02:52:56;166162.81;;;9.19;100.00
45255;BME280;30989;52.078;21.014;2024-02-28T02:55:22;166149.44;;;9.14;100.00
45255;BME280;30989;52.078;21.014;2024-02-28T02:57:47;166132.03;;;9.07;100.00
45255;BME280;30989;52.078;21.014;2024-02-28T03:00:13;166140.06;;;9.10;100.00
45255;BME280;30989;52.078;21.014;2024-02-28T03:02:39;166121.34;;;9.03;100.00
45255;BME280;30989;52.078;21.014;2024-02-28T03:05:05;166116.00;;;9.01;100.00
45255;BME280;30989;52.078;21.014;2024-02-28T03:07:32;166118.66;;;9.02;100.00
45255;BME280;30989;52.078;21.014;2024-02-28T03:09:58;166118.66;;;9.02;100.00
45255;BME280;30989;52.078;21.014;2024-02-28T03:12:23;166110.63;;;8.99;100.00
45255;BME280;30989;52.078;21.014;2024-02-28T03:14:49;166097.25;;;8.94;100.00
45255;BME280;30989;52.078;21.014;2024-02-28T03:17:14;166081.19;;;8.88;100.00
45255;BME280;30989;52.078;21.014;2024-02-28T03:19:42;166057.13;;;8.79;100.00
45255;BME280;30989;52.078;21.014;2024-02-28T03:22:08;166055.78;;;8.78;100.00
45255;BME280;30989;52.078;21.014;2024-02-28T03:24:34;166047.75;;;8.75;100.00
45255;BME280;30989;52.078;21.014;2024-02-28T03:27:02;166045.09;;;8.74;100.00
45255;BME280;30989;52.078;21.014;2024-02-28T03:29:28;166043.75;;;8.73;100.00
45255;BME280;30989;52.078;21.014;2024-02-28T03:31:54;166042.41;;;8.73;100.00
45255;BME280;30989;52.078;21.014;2024-02-28T03:34:19;166041.06;;;8.72;100.00
45255;BME280;30989;52.078;21.014;2024-02-28T03:36:45;166027.69;;;8.67;100.00
45255;BME280;30989;52.078;21.014;2024-02-28T03:39:11;166035.72;;;8.70;100.00
45255;BME280;30989;52.078;21.014;2024-02-28T03:41:36;166033.03;;;8.69;100.00
45255;BME280;30989;52.078;21.014;2024-02-28T03:44:02;166049.09;;;8.76;100.00
45255;BME280;30989;52.078;21.014;2024-02-28T03:46:28;166043.75;;;8.73;100.00
45255;BME280;30989;52.078;21.014;2024-02-28T03:48:53;166050.44;;;8.76;100.00
45255;BME280;30989;52.078;21.014;2024-02-28T03:51:18;166051.78;;;8.77;100.00
45255;BME280;30989;52.078;21.014;2024-02-28T03:53:44;166051.78;;;8.77;100.00
45255;BME280;30989;52.078;21.014;2024-02-28T03:56:09;166051.78;;;8.77;100.00
45255;BME280;30989;52.078;21.014;2024-02-28T03:58:36;166053.09;;;8.77;100.00
45255;BME280;30989;52.078;21.014;2024-02-28T04:01:02;166049.09;;;8.76;100.00
45255;BME280;30989;52.078;21.014;2024-02-28T04:03:27;166046.41;;;8.75;100.00
45255;BME280;30989;52.078;21.014;2024-02-28T04:05:53;166041.06;;;8.72;100.00
45255;BME280;30989;52.078;21.014;2024-02-28T04:08:18;166041.06;;;8.72;100.00
45255;BME280;30989;52.078;21.014;2024-02-28T04:10:44;166030.38;;;8.68;100.00
45255;BME280;30989;52.078;21.014;2024-02-28T04:13:09;166026.34;;;8.67;100.00
45255;BME280;30989;52.078;21.014;2024-02-28T04:15:35;166023.69;;;8.66;100.00
45255;BME280;30989;52.078;21.014;2024-02-28T04:18:00;166019.66;;;8.64;100.00
45255;BME280;30989;52.078;21.014;2024-02-28T04:20:26;166010.31;;;8.61;100.00
45255;BME280;30989;52.078;21.014;2024-02-28T04:22:52;166003.59;;;8.58;100.00
45255;BME280;30989;52.078;21.014;2024-02-28T04:25:17;165998.25;;;8.56;100.00
45255;BME280;30989;52.078;21.014;2024-02-28T04:27:43;165979.53;;;8.49;100.00
45255;BME280;30989;52.078;21.014;2024-02-28T04:30:09;165976.88;;;8.48;100.00
45255;BME280;30989;52.078;21.014;2024-02-28T04:32:36;165968.84;;;8.45;100.00
45255;BME280;30989;52.078;21.014;2024-02-28T04:35:01;165958.13;;;8.41;100.00
45255;BME280;30989;52.078;21.014;2024-02-28T04:37:28;165947.44;;;8.37;100.00
45255;BME280;30989;52.078;21.014;2024-02-28T04:39:53;165934.00;;;8.32;100.00
45255;BME280;30989;52.078;21.014;2024-02-28T04:42:19;165928.66;;;8.30;100.00
45255;BME280;30989;52.078;21.014;2024-02-28T04:44:44;165912.63;;;8.24;100.00
45255;BME280;30989;52.078;21.014;2024-02-28T04:47:10;165900.59;;;8.19;100.00
45255;BME280;30989;52.078;21.014;2024-02-28T04:49:38;165896.56;;;8.18;100.00
45255;BME280;30989;52.078;21.014;2024-02-28T04:52:05;165885.88;;;8.14;100.00
45255;BME280;30989;52.078;21.014;2024-02-28T04:54:31;165869.81;;;8.07;100.00
45255;BME280;30989;52.078;21.014;2024-02-28T04:56:56;165864.47;;;8.05;100.00
45255;BME280;30989;52.078;21.014;2024-02-28T04:59:22;165851.09;;;8.00;100.00
45255;BME280;30989;52.078;21.014;2024-02-28T05:01:47;165853.78;;;8.01;100.00
45255;BME280;30989;52.078;21.014;2024-02-28T05:04:13;165847.09;;;7.99;100.00
45255;BME280;30989;52.078;21.014;2024-02-28T05:06:39;165851.09;;;8.00;100.00
45255;BME280;30989;52.078;21.014;2024-02-28T05:09:05;165849.75;;;8.00;100.00
45255;BME280;30989;52.078;21.014;2024-02-28T05:11:30;165848.44;;;7.99;100.00
45255;BME280;30989;52.078;21.014;2024-02-28T05:13:56;165847.09;;;7.99;100.00
45255;BME280;30989;52.078;21.014;2024-02-28T05:16:21;165856.44;;;8.02;100.00
45255;BME280;30989;52.078;21.014;2024-02-28T05:18:47;165863.13;;;8.05;100.00
45255;BME280;30989;52.078;21.014;2024-02-28T05:21:13;165851.09;;;8.00;100.00
45255;BME280;30989;52.078;21.014;2024-02-28T05:23:40;165872.50;;;8.08;100.00
45255;BME280;30989;52.078;21.014;2024-02-28T05:26:05;165875.16;;;8.09;100.00
45255;BME280;30989;52.078;21.014;2024-02-28T05:28:35;165869.81;;;8.07;100.00
45255;BME280;30989;52.078;21.014;2024-02-28T05:33:46;165879.19;;;8.11;100.00
45255;BME280;30989;52.078;21.014;2024-02-28T05:36:12;165883.19;;;8.13;100.00
45255;BME280;30989;52.078;21.014;2024-02-28T05:38:37;165879.19;;;8.11;100.00
45255;BME280;30989;52.078;21.014;2024-02-28T05:41:03;165879.19;;;8.11;100.00
45255;BME280;30989;52.078;21.014;2024-02-28T05:43:28;165881.84;;;8.12;100.00
45255;BME280;30989;52.078;21.014;2024-02-28T05:45:54;165883.19;;;8.13;100.00
45255;BME280;30989;52.078;21.014;2024-02-28T05:48:20;165885.88;;;8.14;100.00
45255;BME280;30989;52.078;21.014;2024-02-28T05:50:45;165889.88;;;8.15;100.00
45255;BME280;30989;52.078;21.014;2024-02-28T05:53:11;165885.88;;;8.14;100.00
45255;BME280;30989;52.078;21.014;2024-02-28T05:55:36;165880.50;;;8.12;100.00
45255;BME280;30989;52.078;21.014;2024-02-28T05:58:02;165897.91;;;8.18;100.00
45255;BME280;30989;52.078;21.014;2024-02-28T06:00:28;165904.59;;;8.21;100.00
45255;BME280;30989;52.078;21.014;2024-02-28T06:02:54;165905.94;;;8.21;100.00
45255;BME280;30989;52.078;21.014;2024-02-28T06:05:19;165907.25;;;8.22;100.00
45255;BME280;30989;52.078;21.014;2024-02-28T06:07:45;165899.25;;;8.19;100.00
45255;BME280;30989;52.078;21.014;2024-02-28T06:10:10;165904.59;;;8.21;100.00
45255;BME280;30989;52.078;21.014;2024-02-28T06:12:36;165904.59;;;8.21;100.00
45255;BME280;30989;52.078;21.014;2024-02-28T06:15:02;165903.25;;;8.20;100.00
45255;BME280;30989;52.078;21.014;2024-02-28T06:17:28;165901.91;;;8.20;100.00
45255;BME280;30989;52.078;21.014;2024-02-28T06:19:54;165901.91;;;8.20;100.00
45255;BME280;30989;52.078;21.014;2024-02-28T06:22:19;165901.91;;;8.20;100.00
45255;BME280;30989;52.078;21.014;2024-02-28T06:24:46;165903.25;;;8.20;100.00
45255;BME280;30989;52.078;21.014;2024-02-28T06:27:11;165901.91;;;8.20;100.00
45255;BME280;30989;52.078;21.014;2024-02-28T06:29:41;165911.28;;;8.23;100.00
45255;BME280;30989;52.078;21.014;2024-02-28T06:32:06;165907.25;;;8.22;100.00
45255;BME280;30989;52.078;21.014;2024-02-28T06:34:32;165920.63;;;8.27;100.00
45255;BME280;30989;52.078;21.014;2024-02-28T06:36:58;165931.34;;;8.31;100.00
45255;BME280;30989;52.078;21.014;2024-02-28T06:39:23;165935.34;;;8.32;100.00
45255;BME280;30989;52.078;21.014;2024-02-28T06:41:49;165934.00;;;8.32;100.00
45255;BME280;30989;52.078;21.014;2024-02-28T06:44:18;165935.34;;;8.32;100.00
45255;BME280;30989;52.078;21.014;2024-02-28T06:46:44;165936.75;;;8.33;100.00
45255;BME280;30989;52.078;21.014;2024-02-28T06:49:10;165938.06;;;8.33;100.00
45255;BME280;30989;52.078;21.014;2024-02-28T06:51:35;165946.09;;;8.36;100.00
45255;BME280;30989;52.078;21.014;2024-02-28T06:54:01;165954.13;;;8.39;100.00
45255;BME280;30989;52.078;21.014;2024-02-28T06:56:27;165958.13;;;8.41;100.00
45255;BME280;30989;52.078;21.014;2024-02-28T06:58:52;165959.47;;;8.42;100.00
45255;BME280;30989;52.078;21.014;2024-02-28T07:01:18;165958.13;;;8.41;100.00
45255;BME280;30989;52.078;21.014;2024-02-28T07:03:44;165976.88;;;8.48;100.00
45255;BME280;30989;52.078;21.014;2024-02-28T07:06:10;165984.88;;;8.51;100.00
45255;BME280;30989;52.078;21.014;2024-02-28T07:08:36;165999.59;;;8.57;100.00
45255;BME280;30989;52.078;21.014;2024-02-28T07:11:03;165999.59;;;8.57;100.00
45255;BME280;30989;52.078;21.014;2024-02-28T07:13:29;166014.31;;;8.62;100.00
45255;BME280;30989;52.078;21.014;2024-02-28T07:15:55;166025.00;;;8.66;100.00
45255;BME280;30989;52.078;21.014;2024-02-28T07:18:23;166027.69;;;8.67;100.00
45255;BME280;30989;52.078;21.014;2024-02-28T07:20:51;166041.06;;;8.72;100.00
45255;BME280;30989;52.078;21.014;2024-02-28T07:23:17;166049.09;;;8.76;100.00
45255;BME280;30989;52.078;21.014;2024-02-28T07:25:43;166065.16;;;8.82;100.00
45255;BME280;30989;52.078;21.014;2024-02-28T07:28:08;166074.50;;;8.85;100.00
45255;BME280;30989;52.078;21.014;2024-02-28T07:30:34;166078.53;;;8.87;100.00
45255;BME280;30989;52.078;21.014;2024-02-28T07:33:00;166105.28;;;8.97;100.00
45255;BME280;30989;52.078;21.014;2024-02-28T07:35:26;166120.00;;;9.02;100.00
45255;BME280;30989;52.078;21.014;2024-02-28T07:37:51;166138.72;;;9.10;100.00
45255;BME280;30989;52.078;21.014;2024-02-28T07:40:17;166156.13;;;9.16;100.00
45255;BME280;30989;52.078;21.014;2024-02-28T07:42:42;166169.50;;;9.21;100.00
45255;BME280;30989;52.078;21.014;2024-02-28T07:45:08;166185.56;;;9.27;100.00
45255;BME280;30989;52.078;21.014;2024-02-28T07:47:34;166192.25;;;9.30;100.00
45255;BME280;30989;52.078;21.014;2024-02-28T07:50:00;166211.00;;;9.37;100.00
45255;BME280;30989;52.078;21.014;2024-02-28T07:52:25;166217.69;;;9.40;100.00
45255;BME280;30989;52.078;21.014;2024-02-28T07:54:50;166228.38;;;9.44;100.00
45255;BME280;30989;52.078;21.014;2024-02-28T07:57:17;166244.44;;;9.50;100.00
45255;BME280;30989;52.078;21.014;2024-02-28T07:59:42;166255.16;;;9.54;100.00
45255;BME280;30989;52.078;21.014;2024-02-28T08:02:08;166285.94;;;9.65;100.00
45255;BME280;30989;52.078;21.014;2024-02-28T08:04:35;166307.38;;;9.74;100.00
45255;BME280;30989;52.078;21.014;2024-02-28T08:07:00;166316.72;;;9.77;100.00
45255;BME280;30989;52.078;21.014;2024-02-28T08:09:26;166332.81;;;9.83;100.00
45255;BME280;30989;52.078;21.014;2024-02-28T08:11:51;166348.88;;;9.89;100.00
45255;BME280;30989;52.078;21.014;2024-02-28T08:14:17;166352.88;;;9.91;100.00
45255;BME280;30989;52.078;21.014;2024-02-28T08:16:43;166358.22;;;9.93;100.00
45255;BME280;30989;52.078;21.014;2024-02-28T08:19:09;166368.94;;;9.97;100.00
45255;BME280;30989;52.078;21.014;2024-02-28T08:21:35;166371.63;;;9.98;100.00
45255;BME280;30989;52.078;21.014;2024-02-28T08:24:00;166371.63;;;9.98;100.00
45255;BME280;30989;52.078;21.014;2024-02-28T08:26:30;166372.97;;;9.98;100.00
45255;BME280;30989;52.078;21.014;2024-02-28T08:28:56;166385.00;;;10.03;100.00
45255;BME280;30989;52.078;21.014;2024-02-28T08:31:21;166398.41;;;10.08;100.00
45255;BME280;30989;52.078;21.014;2024-02-28T08:33:47;166402.41;;;10.10;100.00
45255;BME280;30989;52.078;21.014;2024-02-28T08:36:12;166407.78;;;10.12;100.00
45255;BME280;30989;52.078;21.014;2024-02-28T08:38:38;166410.44;;;10.13;100.00
45255;BME280;30989;52.078;21.014;2024-02-28T08:41:04;166415.81;;;10.15;100.00
45255;BME280;30989;52.078;21.014;2024-02-28T08:43:30;166401.06;;;10.09;100.00
45255;BME280;30989;52.078;21.014;2024-02-28T08:45:56;166409.09;;;10.12;100.00
45255;BME280;30989;52.078;21.014;2024-02-28T08:48:21;166414.47;;;10.14;100.00
45255;BME280;30989;52.078;21.014;2024-02-28T08:50:48;166426.53;;;10.19;100.00
45255;BME280;30989;52.078;21.014;2024-02-28T08:53:14;166435.94;;;10.22;100.00
45255;BME280;30989;52.078;21.014;2024-02-28T08:55:39;166446.66;;;10.26;100.00
45255;BME280;30989;52.078;21.014;2024-02-28T08:58:05;166461.38;;;10.32;100.00
45255;BME280;30989;52.078;21.014;2024-02-28T09:00:30;166489.56;;;10.43;100.00
45255;BME280;30989;52.078;21.014;2024-02-28T09:02:55;166521.69;;;10.55;100.00
45255;BME280;30989;52.078;21.014;2024-02-28T09:05:23;166549.81;;;10.65;100.00
45255;BME280;30989;52.078;21.014;2024-02-28T09:07:48;166577.97;;;10.76;100.00
45255;BME280;30989;52.078;21.014;2024-02-28T09:10:17;166603.41;;;10.86;100.00
45255;BME280;30989;52.078;21.014;2024-02-28T09:12:47;166619.47;;;10.92;100.00
45255;BME280;30989;52.078;21.014;2024-02-28T09:15:12;166632.88;;;10.97;100.00
45255;BME280;30989;52.078;21.014;2024-02-28T09:17:38;166630.19;;;10.96;100.00
45255;BME280;30989;52.078;21.014;2024-02-28T09:20:04;166654.31;;;11.05;100.00
45255;BME280;30989;52.078;21.014;2024-02-28T09:22:31;166659.66;;;11.07;100.00
45255;BME280;30989;52.078;21.014;2024-02-28T09:24:57;166663.69;;;11.09;100.00
45255;BME280;30989;52.078;21.014;2024-02-28T09:27:23;166685.13;;;11.17;100.00
45255;BME280;30989;52.078;21.014;2024-02-28T09:29:50;166719.97;;;11.30;100.00
45255;BME280;30989;52.078;21.014;2024-02-28T09:32:15;166740.06;;;11.38;100.00
45255;BME280;30989;52.078;21.014;2024-02-28T09:34:41;166765.53;;;11.47;100.00
45255;BME280;30989;52.078;21.014;2024-02-28T09:37:07;166786.97;;;11.55;100.00
45255;BME280;30989;52.078;21.014;2024-02-28T09:39:32;166809.75;;;11.64;100.00
45255;BME280;30989;52.078;21.014;2024-02-28T09:41:58;166809.75;;;11.64;100.00
45255;BME280;30989;52.078;21.014;2024-02-28T09:44:23;166784.28;;;11.54;100.00
45255;BME280;30989;52.078;21.014;2024-02-28T09:46:51;166760.16;;;11.45;100.00
45255;BME280;30989;52.078;21.014;2024-02-28T09:49:18;166742.75;;;11.39;100.00
45255;BME280;30989;52.078;21.014;2024-02-28T09:51:44;166748.09;;;11.41;100.00
45255;BME280;30989;52.078;21.014;2024-02-28T09:54:09;166741.41;;;11.38;100.00
45255;BME280;30989;52.078;21.014;2024-02-28T09:56:35;166737.38;;;11.37;100.00
45255;BME280;30989;52.078;21.014;2024-02-28T09:59:00;166733.38;;;11.35;100.00
45255;BME280;30989;52.078;21.014;2024-02-28T10:01:29;166729.34;;;11.34;100.00
45255;BME280;30989;52.078;21.014;2024-02-28T10:03:55;166729.34;;;11.34;100.00
45255;BME280;30989;52.078;21.014;2024-02-28T10:06:23;166726.66;;;11.33;100.00
45255;BME280;30989;52.078;21.014;2024-02-28T10:08:49;166729.34;;;11.34;100.00
45255;BME280;30989;52.078;21.014;2024-02-28T10:11:21;166730.69;;;11.34;100.00
45255;BME280;30989;52.078;21.014;2024-02-28T10:13:47;166732.03;;;11.35;100.00
45255;BME280;30989;52.078;21.014;2024-02-28T10:16:13;166734.69;;;11.36;100.00
45255;BME280;30989;52.078;21.014;2024-02-28T10:18:42;166750.78;;;11.42;100.00
45255;BME280;30989;52.078;21.014;2024-02-28T10:21:08;166756.16;;;11.44;100.00
45255;BME280;30989;52.078;21.014;2024-02-28T10:23:33;166770.88;;;11.49;100.00
45255;BME280;30989;52.078;21.014;2024-02-28T10:26:00;166766.88;;;11.48;100.00
45255;BME280;30989;52.078;21.014;2024-02-28T10:28:26;166772.22;;;11.50;100.00
45255;BME280;30989;52.078;21.014;2024-02-28T10:30:53;166774.91;;;11.51;100.00
45255;BME280;30989;52.078;21.014;2024-02-28T10:33:19;166770.88;;;11.49;100.00
45255;BME280;30989;52.078;21.014;2024-02-28T10:35:45;166785.63;;;11.55;100.00
45255;BME280;30989;52.078;21.014;2024-02-28T10:38:13;166789.66;;;11.56;100.00
45255;BME280;30989;52.078;21.014;2024-02-28T10:40:40;166800.38;;;11.60;100.00
45255;BME280;30989;52.078;21.014;2024-02-28T10:43:07;166808.41;;;11.63;100.00
45255;BME280;30989;52.078;21.014;2024-02-28T10:45:38;166828.50;;;11.71;100.00
45255;BME280;30989;52.078;21.014;2024-02-28T10:48:05;166848.69;;;11.79;100.00
45255;BME280;30989;52.078;21.014;2024-02-28T10:50:31;166862.06;;;11.84;100.00
45255;BME280;30989;52.078;21.014;2024-02-28T10:53:02;166883.53;;;11.92;100.00
45255;BME280;30989;52.078;21.014;2024-02-28T10:55:40;166895.59;;;11.97;100.00
45255;BME280;30989;52.078;21.014;2024-02-28T10:58:07;166895.59;;;11.97;100.00
45255;BME280;30989;52.078;21.014;2024-02-28T11:00:34;166909.00;;;12.02;100.00
45255;BME280;30989;52.078;21.014;2024-02-28T11:03:01;166903.63;;;12.00;100.00
45255;BME280;30989;52.078;21.014;2024-02-28T11:05:36;166895.59;;;11.97;100.00
45255;BME280;30989;52.078;21.014;2024-02-28T11:08:02;166882.19;;;11.91;100.00
45255;BME280;30989;52.078;21.014;2024-02-28T11:10:31;166854.03;;;11.81;100.00
45255;BME280;30989;52.078;21.014;2024-02-28T11:13:00;166860.72;;;11.83;100.00
45255;BME280;30989;52.078;21.014;2024-02-28T11:15:25;166866.09;;;11.85;100.00
45255;BME280;30989;52.078;21.014;2024-02-28T11:17:54;166862.06;;;11.84;100.00
45255;BME280;30989;52.078;21.014;2024-02-28T11:20:20;166844.66;;;11.77;100.00
45255;BME280;30989;52.078;21.014;2024-02-28T11:22:47;166860.72;;;11.83;100.00
45255;BME280;30989;52.078;21.014;2024-02-28T11:25:13;166851.34;;;11.80;100.00
45255;BME280;30989;52.078;21.014;2024-02-28T11:27:48;166850.00;;;11.79;100.00
45255;BME280;30989;52.078;21.014;2024-02-28T11:30:14;166852.69;;;11.80;100.00
45255;BME280;30989;52.078;21.014;2024-02-28T11:32:40;166852.69;;;11.80;100.00
45255;BME280;30989;52.078;21.014;2024-02-28T11:35:06;166856.72;;;11.82;100.00
45255;BME280;30989;52.078;21.014;2024-02-28T11:37:32;166863.41;;;11.84;100.00
45255;BME280;30989;52.078;21.014;2024-02-28T11:39:58;166851.34;;;11.80;100.00
45255;BME280;30989;52.078;21.014;2024-02-28T11:42:23;166863.41;;;11.84;100.00
45255;BME280;30989;52.078;21.014;2024-02-28T11:44:55;166858.06;;;11.82;100.00
45255;BME280;30989;52.078;21.014;2024-02-28T11:47:23;166850.00;;;11.79;100.00
45255;BME280;30989;52.078;21.014;2024-02-28T11:49:49;166850.00;;;11.79;100.00
45255;BME280;30989;52.078;21.014;2024-02-28T11:52:15;166850.00;;;11.79;100.00
45255;BME280;30989;52.078;21.014;2024-02-28T11:54:40;166852.69;;;11.80;100.00
45255;BME280;30989;52.078;21.014;2024-02-28T11:57:11;166844.66;;;11.77;100.00
45255;BME280;30989;52.078;21.014;2024-02-28T11:59:39;166850.00;;;11.79;100.00
45255;BME280;30989;52.078;21.014;2024-02-28T12:02:12;166854.03;;;11.81;100.00
45255;BME280;30989;52.078;21.014;2024-02-28T12:04:39;166859.41;;;11.83;100.00
45255;BME280;30989;52.078;21.014;2024-02-28T12:07:05;166847.34;;;11.78;100.00
45255;BME280;30989;52.078;21.014;2024-02-28T12:09:31;166812.44;;;11.65;100.00
45255;BME280;30989;52.078;21.014;2024-02-28T12:12:00;166832.53;;;11.73;100.00
45255;BME280;30989;52.078;21.014;2024-02-28T12:14:26;166831.19;;;11.72;100.00
45255;BME280;30989;52.078;21.014;2024-02-28T12:16:52;166792.31;;;11.57;100.00
45255;BME280;30989;52.078;21.014;2024-02-28T12:19:17;166795.00;;;11.58;100.00
45255;BME280;30989;52.078;21.014;2024-02-28T12:21:45;166774.91;;;11.51;100.00
45255;BME280;30989;52.078;21.014;2024-02-28T12:24:11;166780.28;;;11.53;100.00
45255;BME280;30989;52.078;21.014;2024-02-28T12:26:37;166769.53;;;11.49;100.00
45255;BME280;30989;52.078;21.014;2024-02-28T12:29:03;166764.19;;;11.47;100.00
45255;BME280;30989;52.078;21.014;2024-02-28T12:31:29;166769.53;;;11.49;100.00
45255;BME280;30989;52.078;21.014;2024-02-28T12:33:54;166765.53;;;11.47;100.00